sensor_id;sensor_type;location;lat;lon;timestamp;pressure;altitude;pressure_sealevel;temperature;humidity
29839;BME280;18669;53.356;-1.464;2023-04-06T00:00:56;100230.34;;;10.03;100.00
29839;BME280;18669;53.356;-1.464;2023-04-06T00:03:41;100225.16;;;9.99;100.00
29839;BME280;18669;53.356;-1.464;2023-04-06T00:06:25;100234.69;;;10.04;100.00
29839;BME280;18669;53.356;-1.464;2023-04-06T00:09:11;100231.94;;;10.10;100.00
29839;BME280;18669;53.356;-1.464;2023-04-06T00:11:56;100234.47;;;10.13;100.00
29839;BME280;18669;53.356;-1.464;2023-04-06T00:14:42;100234.47;;;10.13;100.00
29839;BME280;18669;53.356;-1.464;2023-04-06T00:17:27;100222.09;;;10.18;100.00
29839;BME280;18669;53.356;-1.464;2023-04-06T00:20:12;100220.34;;;10.17;100.00
29839;BME280;18669;53.356;-1.464;2023-04-06T00:22:57;100217.72;;;10.17;100.00
29839;BME280;18669;53.356;-1.464;2023-04-06T00:25:42;100202.97;;;10.11;100.00
29839;BME280;18669;53.356;-1.464;2023-04-06T00:28:27;100204.66;;;10.14;100.00
29839;BME280;18669;53.356;-1.464;2023-04-06T00:31:13;100207.25;;;10.15;100.00
29839;BME280;18669;53.356;-1.464;2023-04-06T00:33:59;100194.25;;;10.09;100.00
29839;BME280;18669;53.356;-1.464;2023-04-06T00:36:44;100199.44;;;10.12;100.00
29839;BME280;18669;53.356;-1.464;2023-04-06T00:39:29;100193.28;;;10.13;100.00
29839;BME280;18669;53.356;-1.464;2023-04-06T00:42:14;100194.09;;;10.15;100.00
29839;BME280;18669;53.356;-1.464;2023-04-06T00:44:59;100183.63;;;10.14;100.00
29839;BME280;18669;53.356;-1.464;2023-04-06T00:47:45;100185.53;;;10.07;100.00
29839;BME280;18669;53.356;-1.464;2023-04-06T00:50:30;100186.47;;;10.06;100.00
29839;BME280;18669;53.356;-1.464;2023-04-06T00:53:14;100180.28;;;10.07;100.00
29839;BME280;18669;53.356;-1.464;2023-04-06T00:55:59;100178.47;;;10.09;100.00
29839;BME280;18669;53.356;-1.464;2023-04-06T00:58:44;100174.13;;;10.08;100.00
29839;BME280;18669;53.356;-1.464;2023-04-06T01:01:29;100177.63;;;10.09;100.00
29839;BME280;18669;53.356;-1.464;2023-04-06T01:04:14;100162.81;;;10.06;100.00
29839;BME280;18669;53.356;-1.464;2023-04-06T01:06:59;100165.47;;;10.05;100.00
29839;BME280;18669;53.356;-1.464;2023-04-06T01:09:45;100164.69;;;10.01;100.00
29839;BME280;18669;53.356;-1.464;2023-04-06T01:12:29;100169.88;;;10.04;100.00
29839;BME280;18669;53.356;-1.464;2023-04-06T01:15:14;100166.16;;;10.11;100.00
29839;BME280;18669;53.356;-1.464;2023-04-06T01:18:00;100162.75;;;10.08;100.00
29839;BME280;18669;53.356;-1.464;2023-04-06T01:20:45;100157.44;;;10.09;100.00
29839;BME280;18669;53.356;-1.464;2023-04-06T01:23:30;100158.34;;;10.10;100.00
29839;BME280;18669;53.356;-1.464;2023-04-06T01:26:14;100144.28;;;10.11;100.00
29839;BME280;18669;53.356;-1.464;2023-04-06T01:29:00;100147.56;;;10.19;100.00
29839;BME280;18669;53.356;-1.464;2023-04-06T01:31:45;100143.31;;;10.15;100.00
29839;BME280;18669;53.356;-1.464;2023-04-06T01:34:30;100139.84;;;10.13;100.00
29839;BME280;18669;53.356;-1.464;2023-04-06T01:37:15;100129.44;;;10.08;100.00
29839;BME280;18669;53.356;-1.464;2023-04-06T01:40:00;100126.78;;;10.10;100.00
29839;BME280;18669;53.356;-1.464;2023-04-06T01:42:45;100122.38;;;10.10;100.00
29839;BME280;18669;53.356;-1.464;2023-04-06T01:45:30;100115.31;;;10.12;100.00
29839;BME280;18669;53.356;-1.464;2023-04-06T01:48:15;100105.75;;;10.10;100.00
29839;BME280;18669;53.356;-1.464;2023-04-06T01:51:00;100117.88;;;10.15;100.00
29839;BME280;18669;53.356;-1.464;2023-04-06T01:53:46;100110.84;;;10.16;100.00
29839;BME280;18669;53.356;-1.464;2023-04-06T01:56:30;100101.34;;;10.10;100.00
29839;BME280;18669;53.356;-1.464;2023-04-06T01:59:15;100104.69;;;10.17;100.00
29839;BME280;18669;53.356;-1.464;2023-04-06T02:02:00;100100.34;;;10.16;100.00
29839;BME280;18669;53.356;-1.464;2023-04-06T02:04:45;100100.38;;;10.14;100.00
29839;BME280;18669;53.356;-1.464;2023-04-06T02:07:30;100096.91;;;10.12;100.00
29839;BME280;18669;53.356;-1.464;2023-04-06T02:10:15;100099.53;;;10.12;100.00
29839;BME280;18669;53.356;-1.464;2023-04-06T02:13:00;100091.47;;;10.20;100.00
29839;BME280;18669;53.356;-1.464;2023-04-06T02:15:45;100085.41;;;10.17;100.00
29839;BME280;18669;53.356;-1.464;2023-04-06T02:18:31;100080.91;;;10.22;100.00
29839;BME280;18669;53.356;-1.464;2023-04-06T02:21:16;100078.34;;;10.19;100.00
29839;BME280;18669;53.356;-1.464;2023-04-06T02:24:04;100070.47;;;10.19;100.00
29839;BME280;18669;53.356;-1.464;2023-04-06T02:26:49;100062.75;;;10.12;100.00
29839;BME280;18669;53.356;-1.464;2023-04-06T02:29:34;100061.72;;;10.18;100.00
29839;BME280;18669;53.356;-1.464;2023-04-06T02:32:19;100059.13;;;10.17;100.00
29839;BME280;18669;53.356;-1.464;2023-04-06T02:35:04;100057.25;;;10.22;100.00
29839;BME280;18669;53.356;-1.464;2023-04-06T02:37:49;100053.78;;;10.20;100.00
29839;BME280;18669;53.356;-1.464;2023-04-06T02:40:34;100052.13;;;10.17;100.00
29839;BME280;18669;53.356;-1.464;2023-04-06T02:43:19;100058.91;;;10.24;100.00
29839;BME280;18669;53.356;-1.464;2023-04-06T02:46:05;100051.97;;;10.22;100.00
29839;BME280;18669;53.356;-1.464;2023-04-06T02:48:50;100048.50;;;10.21;100.00
29839;BME280;18669;53.356;-1.464;2023-04-06T02:51:35;100039.81;;;10.19;100.00
29839;BME280;18669;53.356;-1.464;2023-04-06T02:54:20;100045.75;;;10.24;100.00
29839;BME280;18669;53.356;-1.464;2023-04-06T02:57:04;100041.47;;;10.22;100.00
29839;BME280;18669;53.356;-1.464;2023-04-06T02:59:50;100047.59;;;10.22;100.00
29839;BME280;18669;53.356;-1.464;2023-04-06T03:02:35;100054.69;;;10.19;100.00
29839;BME280;18669;53.356;-1.464;2023-04-06T03:05:20;100057.22;;;10.23;100.00
29839;BME280;18669;53.356;-1.464;2023-04-06T03:08:05;100055.59;;;10.18;100.00
29839;BME280;18669;53.356;-1.464;2023-04-06T03:10:50;100059.03;;;10.21;100.00
29839;BME280;18669;53.356;-1.464;2023-04-06T03:13:36;100049.19;;;10.28;100.00
29839;BME280;18669;53.356;-1.464;2023-04-06T03:16:22;100051.03;;;10.24;100.00
29839;BME280;18669;53.356;-1.464;2023-04-06T03:19:07;100049.28;;;10.25;100.00
29839;BME280;18669;53.356;-1.464;2023-04-06T03:21:53;100040.41;;;10.27;100.00
29839;BME280;18669;53.356;-1.464;2023-04-06T03:24:37;100038.56;;;10.31;100.00
29839;BME280;18669;53.356;-1.464;2023-04-06T03:27:22;100028.97;;;10.30;100.00
29839;BME280;18669;53.356;-1.464;2023-04-06T03:30:07;100014.00;;;10.32;100.00
29839;BME280;18669;53.356;-1.464;2023-04-06T03:32:52;100015.69;;;10.35;100.00
29839;BME280;18669;53.356;-1.464;2023-04-06T03:35:37;100013.94;;;10.34;100.00
29839;BME280;18669;53.356;-1.464;2023-04-06T03:38:22;100017.41;;;10.36;100.00
29839;BME280;18669;53.356;-1.464;2023-04-06T03:41:07;100016.56;;;10.35;100.00
29839;BME280;18669;53.356;-1.464;2023-04-06T03:43:52;100015.59;;;10.39;100.00
29839;BME280;18669;53.356;-1.464;2023-04-06T03:46:37;100016.56;;;10.35;100.00
29839;BME280;18669;53.356;-1.464;2023-04-06T03:49:22;100018.31;;;10.35;100.00
29839;BME280;18669;53.356;-1.464;2023-04-06T03:52:07;100013.94;;;10.35;100.00
29839;BME280;18669;53.356;-1.464;2023-04-06T03:54:52;100012.09;;;10.37;100.00
29839;BME280;18669;53.356;-1.464;2023-04-06T03:57:37;100007.78;;;10.35;100.00
29839;BME280;18669;53.356;-1.464;2023-04-06T04:00:23;100008.53;;;10.40;100.00
29839;BME280;18669;53.356;-1.464;2023-04-06T04:03:07;100004.34;;;10.33;100.00
29839;BME280;18669;53.356;-1.464;2023-04-06T04:05:53;99999.81;;;10.39;100.00
29839;BME280;18669;53.356;-1.464;2023-04-06T04:08:39;99998.06;;;10.38;100.00
29839;BME280;18669;53.356;-1.464;2023-04-06T04:11:25;99995.47;;;10.37;100.00
29839;BME280;18669;53.356;-1.464;2023-04-06T04:14:09;99989.44;;;10.33;100.00
29839;BME280;18669;53.356;-1.464;2023-04-06T04:16:54;100002.44;;;10.39;100.00
29839;BME280;18669;53.356;-1.464;2023-04-06T04:19:39;99984.88;;;10.40;100.00
29839;BME280;18669;53.356;-1.464;2023-04-06T04:22:36;99994.22;;;10.50;100.00
29839;BME280;18669;53.356;-1.464;2023-04-06T04:25:21;99992.00;;;10.35;100.00
29839;BME280;18669;53.356;-1.464;2023-04-06T04:28:05;99991.25;;;10.31;100.00
29839;BME280;18669;53.356;-1.464;2023-04-06T04:30:50;99989.44;;;10.33;100.00
29839;BME280;18669;53.356;-1.464;2023-04-06T04:33:35;99991.06;;;10.37;100.00
29839;BME280;18669;53.356;-1.464;2023-04-06T04:36:21;99981.66;;;10.30;100.00
29839;BME280;18669;53.356;-1.464;2023-04-06T04:39:05;99981.56;;;10.33;100.00
29839;BME280;18669;53.356;-1.464;2023-04-06T04:41:50;99975.28;;;10.39;100.00
29839;BME280;18669;53.356;-1.464;2023-04-06T04:44:35;99981.34;;;10.41;100.00
29839;BME280;18669;53.356;-1.464;2023-04-06T04:47:20;99977.75;;;10.43;100.00
29839;BME280;18669;53.356;-1.464;2023-04-06T04:50:05;99979.47;;;10.44;100.00
29839;BME280;18669;53.356;-1.464;2023-04-06T04:52:51;99982.25;;;10.40;100.00
29839;BME280;18669;53.356;-1.464;2023-04-06T04:55:36;99972.63;;;10.39;100.00
29839;BME280;18669;53.356;-1.464;2023-04-06T04:58:20;99980.44;;;10.42;100.00
29839;BME280;18669;53.356;-1.464;2023-04-06T05:01:05;99986.53;;;10.42;100.00
29839;BME280;18669;53.356;-1.464;2023-04-06T05:03:50;99979.47;;;10.44;100.00
29839;BME280;18669;53.356;-1.464;2023-04-06T05:06:34;99979.59;;;10.41;100.00
29839;BME280;18669;53.356;-1.464;2023-04-06T05:09:19;99976.97;;;10.41;100.00
29839;BME280;18669;53.356;-1.464;2023-04-06T05:12:05;99964.78;;;10.37;100.00
29839;BME280;18669;53.356;-1.464;2023-04-06T05:14:49;99968.13;;;10.42;100.00
29839;BME280;18669;53.356;-1.464;2023-04-06T05:17:34;99965.41;;;10.45;100.00
29839;BME280;18669;53.356;-1.464;2023-04-06T05:20:19;99971.50;;;10.48;100.00
29839;BME280;18669;53.356;-1.464;2023-04-06T05:23:04;99958.44;;;10.44;100.00
29839;BME280;18669;53.356;-1.464;2023-04-06T05:25:50;99975.66;;;10.55;100.00
29839;BME280;18669;53.356;-1.464;2023-04-06T05:28:35;99969.75;;;10.48;100.00
29839;BME280;18669;53.356;-1.464;2023-04-06T05:31:20;99968.69;;;10.54;100.00
29839;BME280;18669;53.356;-1.464;2023-04-06T05:34:05;99971.22;;;10.57;100.00
29839;BME280;18669;53.356;-1.464;2023-04-06T05:36:50;99972.91;;;10.59;100.00
29839;BME280;18669;53.356;-1.464;2023-04-06T05:39:35;99966.75;;;10.59;100.00
29839;BME280;18669;53.356;-1.464;2023-04-06T05:42:20;99982.19;;;10.70;100.00
29839;BME280;18669;53.356;-1.464;2023-04-06T05:45:06;99983.84;;;10.74;100.00
29839;BME280;18669;53.356;-1.464;2023-04-06T05:47:51;99986.56;;;10.71;100.00
29839;BME280;18669;53.356;-1.464;2023-04-06T05:50:36;99990.81;;;10.75;100.00
29839;BME280;18669;53.356;-1.464;2023-04-06T05:53:21;99978.53;;;10.76;100.00
29839;BME280;18669;53.356;-1.464;2023-04-06T05:56:06;99986.31;;;10.79;100.00
29839;BME280;18669;53.356;-1.464;2023-04-06T05:58:51;99975.84;;;10.77;100.00
29839;BME280;18669;53.356;-1.464;2023-04-06T06:01:36;99973.13;;;10.80;100.00
29839;BME280;18669;53.356;-1.464;2023-04-06T06:04:21;99952.81;;;10.84;100.00
29839;BME280;18669;53.356;-1.464;2023-04-06T06:07:06;99956.44;;;10.80;100.00
29839;BME280;18669;53.356;-1.464;2023-04-06T06:09:51;99969.47;;;10.84;100.00
29839;BME280;18669;53.356;-1.464;2023-04-06T06:12:36;99983.56;;;10.82;100.00
29839;BME280;18669;53.356;-1.464;2023-04-06T06:15:21;99980.13;;;10.80;100.00
29839;BME280;18669;53.356;-1.464;2023-04-06T06:18:06;99975.75;;;10.80;100.00
29839;BME280;18669;53.356;-1.464;2023-04-06T06:20:51;99969.56;;;10.81;100.00
29839;BME280;18669;53.356;-1.464;2023-04-06T06:23:36;99968.66;;;10.82;100.00
29839;BME280;18669;53.356;-1.464;2023-04-06T06:26:21;99980.03;;;10.83;100.00
29839;BME280;18669;53.356;-1.464;2023-04-06T06:29:07;99979.81;;;10.91;100.00
29839;BME280;18669;53.356;-1.464;2023-04-06T06:31:51;99990.34;;;10.91;100.00
29839;BME280;18669;53.356;-1.464;2023-04-06T06:34:36;99985.00;;;10.92;100.00
29839;BME280;18669;53.356;-1.464;2023-04-06T06:37:21;99984.09;;;10.93;100.00
29839;BME280;18669;53.356;-1.464;2023-04-06T06:40:06;99980.41;;;10.99;100.00
29839;BME280;18669;53.356;-1.464;2023-04-06T06:42:52;100004.19;;;10.96;100.00
29839;BME280;18669;53.356;-1.464;2023-04-06T06:45:37;99989.44;;;10.92;100.00
29839;BME280;18669;53.356;-1.464;2023-04-06T06:48:22;99999.88;;;10.95;100.00
29839;BME280;18669;53.356;-1.464;2023-04-06T06:51:07;99998.78;;;11.00;100.00
29839;BME280;18669;53.356;-1.464;2023-04-06T06:53:54;99994.34;;;11.02;100.00
29839;BME280;18669;53.356;-1.464;2023-04-06T06:56:46;100005.63;;;11.06;100.00
29839;BME280;18669;53.356;-1.464;2023-04-06T06:59:31;99996.00;;;11.05;100.00
29839;BME280;18669;53.356;-1.464;2023-04-06T07:02:16;99992.56;;;11.03;100.00
29839;BME280;18669;53.356;-1.464;2023-04-06T07:05:02;99985.16;;;11.14;100.00
29839;BME280;18669;53.356;-1.464;2023-04-06T07:07:48;99984.56;;;11.06;100.00
29839;BME280;18669;53.356;-1.464;2023-04-06T07:10:33;99994.28;;;11.04;100.00
29839;BME280;18669;53.356;-1.464;2023-04-06T07:13:19;100002.50;;;10.95;100.00
29839;BME280;18669;53.356;-1.464;2023-04-06T07:16:07;99999.97;;;10.92;100.00
29839;BME280;18669;53.356;-1.464;2023-04-06T07:18:52;99997.22;;;10.95;100.00
29839;BME280;18669;53.356;-1.464;2023-04-06T07:22:05;100020.16;;;11.18;100.00
29839;BME280;18669;53.356;-1.464;2023-04-06T07:24:50;100023.38;;;10.99;100.00
29839;BME280;18669;53.356;-1.464;2023-04-06T07:27:35;100027.50;;;11.08;100.00
29839;BME280;18669;53.356;-1.464;2023-04-06T07:30:20;100031.91;;;11.08;100.00
29839;BME280;18669;53.356;-1.464;2023-04-06T07:33:06;100038.94;;;11.07;100.00
29839;BME280;18669;53.356;-1.464;2023-04-06T07:35:51;100035.00;;;10.92;100.00
29839;BME280;18669;53.356;-1.464;2023-04-06T07:38:37;100036.22;;;10.82;100.00
29839;BME280;18669;53.356;-1.464;2023-04-06T07:41:22;100036.34;;;10.77;100.00
29839;BME280;18669;53.356;-1.464;2023-04-06T07:44:07;100036.88;;;10.60;100.00
29839;BME280;18669;53.356;-1.464;2023-04-06T07:46:51;100041.22;;;10.61;100.00
29839;BME280;18669;53.356;-1.464;2023-04-06T07:49:36;100052.50;;;10.65;100.00
29839;BME280;18669;53.356;-1.464;2023-04-06T07:52:21;100042.88;;;10.65;100.00
29839;BME280;18669;53.356;-1.464;2023-04-06T07:55:06;100035.63;;;10.72;100.00
29839;BME280;18669;53.356;-1.464;2023-04-06T07:57:52;100041.69;;;10.76;100.00
29839;BME280;18669;53.356;-1.464;2023-04-06T08:00:37;100033.44;;;10.86;100.00
29839;BME280;18669;53.356;-1.464;2023-04-06T08:03:21;100043.16;;;10.84;100.00
29839;BME280;18669;53.356;-1.464;2023-04-06T08:06:09;100055.25;;;10.90;100.00
29839;BME280;18669;53.356;-1.464;2023-04-06T08:08:54;100050.81;;;10.92;100.00
29839;BME280;18669;53.356;-1.464;2023-04-06T08:11:39;100058.59;;;10.95;100.00
29839;BME280;18669;53.356;-1.464;2023-04-06T08:14:24;100054.53;;;11.13;100.00
29839;BME280;18669;53.356;-1.464;2023-04-06T08:17:09;100047.69;;;11.34;100.00
29839;BME280;18669;53.356;-1.464;2023-04-06T08:19:55;100053.69;;;11.40;100.00
29839;BME280;18669;53.356;-1.464;2023-04-06T08:22:40;100052.31;;;11.55;100.00
29839;BME280;18669;53.356;-1.464;2023-04-06T08:25:25;100040.53;;;11.90;100.00
29839;BME280;18669;53.356;-1.464;2023-04-06T08:28:10;100043.75;;;11.99;100.00
29839;BME280;18669;53.356;-1.464;2023-04-06T08:30:55;100045.00;;;12.14;100.00
29839;BME280;18669;53.356;-1.464;2023-04-06T08:33:40;100064.25;;;12.16;100.00
29839;BME280;18669;53.356;-1.464;2023-04-06T08:36:25;100054.28;;;12.48;100.00
29839;BME280;18669;53.356;-1.464;2023-04-06T08:39:10;100055.88;;;12.76;100.00
29839;BME280;18669;53.356;-1.464;2023-04-06T08:41:55;100061.16;;;12.76;100.00
29839;BME280;18669;53.356;-1.464;2023-04-06T08:44:44;100069.81;;;12.79;100.00
29839;BME280;18669;53.356;-1.464;2023-04-06T08:47:30;100061.09;;;12.77;100.00
29839;BME280;18669;53.356;-1.464;2023-04-06T08:50:16;100063.00;;;12.50;100.00
29839;BME280;18669;53.356;-1.464;2023-04-06T08:53:02;100078.66;;;12.31;100.00
29839;BME280;18669;53.356;-1.464;2023-04-06T08:55:47;100066.06;;;12.15;100.00
29839;BME280;18669;53.356;-1.464;2023-04-06T08:58:35;100070.97;;;12.24;100.00
29839;BME280;18669;53.356;-1.464;2023-04-06T09:01:23;100063.88;;;12.01;100.00
29839;BME280;18669;53.356;-1.464;2023-04-06T09:04:10;100071.34;;;11.88;100.00
29839;BME280;18669;53.356;-1.464;2023-04-06T09:06:55;100072.94;;;11.67;100.00
29839;BME280;18669;53.356;-1.464;2023-04-06T09:09:40;100074.44;;;12.50;100.00
29839;BME280;18669;53.356;-1.464;2023-04-06T09:12:32;100073.69;;;13.15;100.00
29839;BME280;18669;53.356;-1.464;2023-04-06T09:15:21;100079.38;;;14.31;100.00
29839;BME280;18669;53.356;-1.464;2023-04-06T09:18:06;100065.06;;;15.49;84.88
29839;BME280;18669;53.356;-1.464;2023-04-06T09:21:00;100069.19;;;16.41;70.46
29839;BME280;18669;53.356;-1.464;2023-04-06T09:23:45;100063.66;;;16.94;66.97
29839;BME280;18669;53.356;-1.464;2023-04-06T09:26:30;100065.13;;;16.83;60.72
29839;BME280;18669;53.356;-1.464;2023-04-06T09:29:26;100062.63;;;17.28;61.35
29839;BME280;18669;53.356;-1.464;2023-04-06T09:32:11;100075.06;;;16.96;59.12
29839;BME280;18669;53.356;-1.464;2023-04-06T09:35:09;100073.88;;;16.36;60.43
29839;BME280;18669;53.356;-1.464;2023-04-06T09:37:54;100079.56;;;16.12;61.68
29839;BME280;18669;53.356;-1.464;2023-04-06T09:40:50;100083.16;;;16.61;60.37
29839;BME280;18669;53.356;-1.464;2023-04-06T09:43:35;100091.75;;;16.16;59.51
29839;BME280;18669;53.356;-1.464;2023-04-06T09:46:21;100102.53;;;15.41;60.25
29839;BME280;18669;53.356;-1.464;2023-04-06T09:49:08;100095.69;;;14.81;61.98
29839;BME280;18669;53.356;-1.464;2023-04-06T09:51:57;100096.44;;;14.64;65.01
29839;BME280;18669;53.356;-1.464;2023-04-06T09:54:44;100090.38;;;14.62;74.24
29839;BME280;18669;53.356;-1.464;2023-04-06T09:57:57;100093.47;;;14.72;64.99
29839;BME280;18669;53.356;-1.464;2023-04-06T10:01:01;100091.31;;;14.99;62.96
29839;BME280;18669;53.356;-1.464;2023-04-06T10:03:56;100094.06;;;15.70;60.13
29839;BME280;18669;53.356;-1.464;2023-04-06T10:06:46;100099.19;;;15.92;59.23
29839;BME280;18669;53.356;-1.464;2023-04-06T10:09:37;100094.06;;;15.70;60.02
29839;BME280;18669;53.356;-1.464;2023-04-06T10:12:22;100100.19;;;16.07;58.82
29839;BME280;18669;53.356;-1.464;2023-04-06T10:15:08;100109.56;;;16.64;56.56
29839;BME280;18669;53.356;-1.464;2023-04-06T10:17:54;100116.34;;;16.36;54.18
29839;BME280;18669;53.356;-1.464;2023-04-06T10:20:48;100120.00;;;16.17;55.67
29839;BME280;18669;53.356;-1.464;2023-04-06T10:23:48;100122.38;;;15.88;57.04
29839;BME280;18669;53.356;-1.464;2023-04-06T10:26:33;100112.34;;;15.76;57.04
29839;BME280;18669;53.356;-1.464;2023-04-06T10:29:20;100100.88;;;16.94;54.44
29839;BME280;18669;53.356;-1.464;2023-04-06T10:32:05;100098.78;;;17.31;52.53
29839;BME280;18669;53.356;-1.464;2023-04-06T10:34:50;100114.25;;;17.08;53.48
29839;BME280;18669;53.356;-1.464;2023-04-06T10:37:53;100095.78;;;17.98;50.16
29839;BME280;18669;53.356;-1.464;2023-04-06T10:40:39;100108.47;;;17.79;49.82
29839;BME280;18669;53.356;-1.464;2023-04-06T10:43:24;100106.50;;;17.82;49.23
29839;BME280;18669;53.356;-1.464;2023-04-06T10:46:10;100101.25;;;17.81;49.03
29839;BME280;18669;53.356;-1.464;2023-04-06T10:48:56;100094.84;;;17.69;48.13
29839;BME280;18669;53.356;-1.464;2023-04-06T10:51:41;100099.44;;;17.51;49.01
29839;BME280;18669;53.356;-1.464;2023-04-06T10:54:26;100108.13;;;17.38;50.56
29839;BME280;18669;53.356;-1.464;2023-04-06T10:57:12;100106.69;;;16.84;50.65
29839;BME280;18669;53.356;-1.464;2023-04-06T10:59:57;100109.00;;;16.41;52.57
29839;BME280;18669;53.356;-1.464;2023-04-06T11:02:42;100103.78;;;16.06;53.50
29839;BME280;18669;53.356;-1.464;2023-04-06T11:05:26;100107.28;;;16.06;51.60
29839;BME280;18669;53.356;-1.464;2023-04-06T11:08:29;100108.22;;;16.39;51.98
29839;BME280;18669;53.356;-1.464;2023-04-06T11:11:16;100125.28;;;15.82;53.62
29839;BME280;18669;53.356;-1.464;2023-04-06T11:14:03;100110.88;;;15.70;52.96
29839;BME280;18669;53.356;-1.464;2023-04-06T11:16:48;100117.34;;;16.00;53.66
29839;BME280;18669;53.356;-1.464;2023-04-06T11:19:34;100124.53;;;16.15;51.43
29839;BME280;18669;53.356;-1.464;2023-04-06T11:22:19;100136.31;;;15.92;52.41
29839;BME280;18669;53.356;-1.464;2023-04-06T11:25:08;100122.59;;;16.01;51.20
29839;BME280;18669;53.356;-1.464;2023-04-06T11:27:53;100136.03;;;16.49;51.50
29839;BME280;18669;53.356;-1.464;2023-04-06T11:30:38;100130.34;;;16.89;49.62
29839;BME280;18669;53.356;-1.464;2023-04-06T11:33:23;100124.28;;;17.03;49.22
29839;BME280;18669;53.356;-1.464;2023-04-06T11:36:08;100140.88;;;17.55;48.58
29839;BME280;18669;53.356;-1.464;2023-04-06T11:38:52;100137.59;;;17.96;48.47
29839;BME280;18669;53.356;-1.464;2023-04-06T11:41:37;100149.53;;;17.58;45.41
29839;BME280;18669;53.356;-1.464;2023-04-06T11:44:38;100167.06;;;16.31;46.89
29839;BME280;18669;53.356;-1.464;2023-04-06T11:47:32;100158.22;;;15.95;49.85
29839;BME280;18669;53.356;-1.464;2023-04-06T11:50:17;100143.69;;;16.72;48.46
29839;BME280;18669;53.356;-1.464;2023-04-06T11:53:02;100136.25;;;16.94;47.67
29839;BME280;18669;53.356;-1.464;2023-04-06T11:55:47;100158.03;;;18.41;45.17
29839;BME280;18669;53.356;-1.464;2023-04-06T11:58:32;100154.09;;;18.03;44.84
29839;BME280;18669;53.356;-1.464;2023-04-06T12:01:17;100160.53;;;17.36;45.83
29839;BME280;18669;53.356;-1.464;2023-04-06T12:04:02;100162.03;;;17.72;45.49
29839;BME280;18669;53.356;-1.464;2023-04-06T12:06:48;100163.44;;;17.48;44.92
29839;BME280;18669;53.356;-1.464;2023-04-06T12:09:33;100164.31;;;18.25;45.37
29839;BME280;18669;53.356;-1.464;2023-04-06T12:12:19;100165.56;;;18.63;43.54
29839;BME280;18669;53.356;-1.464;2023-04-06T12:15:04;100173.25;;;19.26;42.78
29839;BME280;18669;53.356;-1.464;2023-04-06T12:17:49;100160.34;;;19.87;41.95
29839;BME280;18669;53.356;-1.464;2023-04-06T12:20:34;100162.34;;;20.24;41.49
29839;BME280;18669;53.356;-1.464;2023-04-06T12:23:19;100166.09;;;20.08;41.57
29839;BME280;18669;53.356;-1.464;2023-04-06T12:26:04;100171.41;;;19.95;43.08
29839;BME280;18669;53.356;-1.464;2023-04-06T12:28:51;100172.94;;;20.51;42.85
29839;BME280;18669;53.356;-1.464;2023-04-06T12:31:36;100176.03;;;20.32;41.54
29839;BME280;18669;53.356;-1.464;2023-04-06T12:34:23;100177.69;;;19.40;41.40
29839;BME280;18669;53.356;-1.464;2023-04-06T12:37:07;100171.16;;;18.44;44.42
29839;BME280;18669;53.356;-1.464;2023-04-06T12:39:52;100181.97;;;18.12;44.52
29839;BME280;18669;53.356;-1.464;2023-04-06T12:42:38;100187.38;;;17.48;45.96
29839;BME280;18669;53.356;-1.464;2023-04-06T12:45:24;100201.47;;;17.18;47.49
29839;BME280;18669;53.356;-1.464;2023-04-06T12:48:10;100194.47;;;16.99;47.29
29839;BME280;18669;53.356;-1.464;2023-04-06T12:51:00;100199.97;;;16.96;48.16
29839;BME280;18669;53.356;-1.464;2023-04-06T12:53:45;100196.72;;;16.73;48.81
29839;BME280;18669;53.356;-1.464;2023-04-06T12:56:30;100200.25;;;17.07;47.32
29839;BME280;18669;53.356;-1.464;2023-04-06T12:59:15;100204.56;;;17.42;47.54
29839;BME280;18669;53.356;-1.464;2023-04-06T13:02:01;100200.19;;;18.03;46.31
29839;BME280;18669;53.356;-1.464;2023-04-06T13:04:46;100215.34;;;17.55;47.52
29839;BME280;18669;53.356;-1.464;2023-04-06T13:07:32;100216.44;;;17.83;48.03
29839;BME280;18669;53.356;-1.464;2023-04-06T13:10:16;100226.81;;;17.87;48.64
29839;BME280;18669;53.356;-1.464;2023-04-06T13:13:01;100226.06;;;17.37;48.40
29839;BME280;18669;53.356;-1.464;2023-04-06T13:15:46;100219.81;;;17.22;47.44
29839;BME280;18669;53.356;-1.464;2023-04-06T13:18:31;100231.94;;;17.44;47.63
29839;BME280;18669;53.356;-1.464;2023-04-06T13:21:16;100221.66;;;17.84;46.17
29839;BME280;18669;53.356;-1.464;2023-04-06T13:24:02;100218.34;;;17.49;45.46
29839;BME280;18669;53.356;-1.464;2023-04-06T13:26:47;100222.84;;;18.70;43.83
29839;BME280;18669;53.356;-1.464;2023-04-06T13:29:32;100223.31;;;20.04;41.95
29839;BME280;18669;53.356;-1.464;2023-04-06T13:32:18;100220.22;;;20.90;39.59
29839;BME280;18669;53.356;-1.464;2023-04-06T13:35:03;100228.53;;;20.85;39.57
29839;BME280;18669;53.356;-1.464;2023-04-06T13:37:49;100222.38;;;20.05;41.57
29839;BME280;18669;53.356;-1.464;2023-04-06T13:40:39;100230.78;;;20.52;41.59
29839;BME280;18669;53.356;-1.464;2023-04-06T13:43:24;100230.09;;;20.49;40.05
29839;BME280;18669;53.356;-1.464;2023-04-06T13:46:11;100228.84;;;20.54;39.89
29839;BME280;18669;53.356;-1.464;2023-04-06T13:48:56;100217.09;;;21.95;38.04
29839;BME280;18669;53.356;-1.464;2023-04-06T13:51:40;100230.69;;;22.04;37.57
29839;BME280;18669;53.356;-1.464;2023-04-06T13:54:26;100243.28;;;21.91;37.74
29839;BME280;18669;53.356;-1.464;2023-04-06T13:57:12;100252.81;;;21.08;39.48
29839;BME280;18669;53.356;-1.464;2023-04-06T13:59:57;100260.03;;;20.41;40.32
29839;BME280;18669;53.356;-1.464;2023-04-06T14:02:42;100251.63;;;20.86;39.46
29839;BME280;18669;53.356;-1.464;2023-04-06T14:05:31;100252.16;;;21.17;39.24
29839;BME280;18669;53.356;-1.464;2023-04-06T14:08:16;100250.09;;;19.48;41.30
29839;BME280;18669;53.356;-1.464;2023-04-06T14:11:01;100252.00;;;18.73;43.19